Arnhem/Dieren, Netherlands
Current Conditions -  °F | °C
As of 12:25 PM on Tuesday 21 Oct 2014 (Local Time) from EHDL Reporting Station
Light Rain Light Rain  
Wind Chill: 54°   Ceiling: 700
Heat Index: 54°   Visibility: 4mi
Dew Point: 52°   Wind: 20mph
Humidity: 94%   Direction: 200°SSW
Pressure: 29.53"   Gusts: NA
Location:  52.07°N, 5.88°E
Report Text: EHDL 211025Z AUTO 20017KT 7000 -RADZ SCT006 BKN007 OVC009 12/11 Q1000 RERA REDZ YLO
Loading
Personal Weather Stations






























Interactive Weather Map
Tropical Storm Tracking
New forecast layout! Learn more

10-Day Weather Forecast

Advertisements
Track Severe Weather on mobile